Time;durP1;ratioP1;P1;durP2;ratioP2;P2;SDS_P1;SDS_P2;PMS_P1;PMS_P2;Temp;Humidity;BMP_temperature;BMP_pressure;BME280_temperature;BME280_humidity;BME280_pressure;Samples;Min_cycle;Max_cycle;Signal;HPM_P1;HPM_P2
2022/08/30 00:01:08;;;;;;;7.47;4.32;;;;;;;;;;5015360;27;90002;-71
2022/08/30 00:03:41;;;;;;;8.07;4.68;;;;;;;;;;5017563;27;90384;-72
2022/08/30 00:06:08;;;;;;;15.52;5.20;;;;;;;;;;5015462;27;89308;-70
2022/08/30 00:08:36;;;;;;;12.88;5.28;;;;;;;;;;5015220;27;89659;-69
2022/08/30 00:11:03;;;;;;;14.77;4.75;;;;;;;;;;5017632;27;89160;-70
2022/08/30 00:13:30;;;;;;;9.02;4.80;;;;;;;;;;5016666;27;90133;-70
2022/08/30 00:15:56;;;;;;;15.27;5.45;;;;;;;;;;5020821;27;89703;-70
2022/08/30 00:18:23;;;;;;;11.40;5.38;;;;;;;;;;5014653;27;89728;-70
2022/08/30 00:20:50;;;;;;;10.25;5.10;;;;;;;;;;5018001;27;91007;-69
2022/08/30 00:23:18;;;;;;;8.73;4.80;;;;;;;;;;5016870;27;90175;-70
2022/08/30 00:25:44;;;;;;;10.05;5.10;;;;;;;;;;5023362;27;89128;-70
2022/08/30 00:28:11;;;;;;;12.55;4.75;;;;;;;;;;5039629;27;90202;-70
2022/08/30 00:30:38;;;;;;;10.25;5.20;;;;;;;;;;5040747;27;89821;-70
2022/08/30 00:33:04;;;;;;;10.45;5.50;;;;;;;;;;5019602;27;89535;-70
2022/08/30 00:35:31;;;;;;;11.45;5.35;;;;;;;;;;5021468;27;89873;-70
2022/08/30 00:37:57;;;;;;;8.52;4.85;;;;;;;;;;5017651;27;89433;-70
2022/08/30 00:40:24;;;;;;;14.85;5.95;;;;;;;;;;5023485;27;89911;-70
2022/08/30 00:42:54;;;;;;;15.98;5.32;;;;;;;;;;5022591;27;91011;-70
2022/08/30 00:45:27;;;;;;;13.93;5.55;;;;;;;;;;5023493;27;89102;-70
2022/08/30 00:47:54;;;;;;;11.50;5.20;;;;;;;;;;5017737;27;89586;-70
2022/08/30 00:50:21;;;;;;;10.20;5.55;;;;;;;;;;5020313;27;90211;-70
2022/08/30 00:52:49;;;;;;;10.27;5.50;;;;;;;;;;5020914;27;90153;-70
2022/08/30 00:55:16;;;;;;;9.45;5.57;;;;;;;;;;5021848;27;89904;-70
2022/08/30 00:57:44;;;;;;;10.73;5.78;;;;;;;;;;5018714;27;89506;-70
2022/08/30 01:00:11;;;;;;;10.27;5.30;;;;;;;;;;5020903;27;88744;-70
2022/08/30 01:02:37;;;;;;;11.88;5.63;;;;;;;;;;5020236;27;88885;-70
2022/08/30 01:05:05;;;;;;;11.00;5.20;;;;;;;;;;5016365;27;89394;-70
2022/08/30 01:07:32;;;;;;;13.02;6.10;;;;;;;;;;5022969;27;90451;-70
2022/08/30 01:09:58;;;;;;;11.75;6.05;;;;;;;;;;5019512;27;90040;-70
2022/08/30 01:12:25;;;;;;;8.85;5.28;;;;;;;;;;5024802;27;90053;-70
2022/08/30 01:14:51;;;;;;;9.95;6.20;;;;;;;;;;5021044;27;89704;-70
2022/08/30 01:17:18;;;;;;;13.63;5.97;;;;;;;;;;5019197;27;90082;-70
2022/08/30 01:19:56;;;;;;;9.45;5.45;;;;;;;;;;5019939;27;89920;-71
2022/08/30 01:22:26;;;;;;;15.07;5.78;;;;;;;;;;5018479;27;90924;-70
2022/08/30 01:24:54;;;;;;;9.65;5.85;;;;;;;;;;5019525;27;89171;-71
2022/08/30 01:27:21;;;;;;;10.60;6.22;;;;;;;;;;5025538;27;88028;-70
2022/08/30 01:29:47;;;;;;;12.63;6.28;;;;;;;;;;5019005;27;89854;-70
2022/08/30 01:32:15;;;;;;;10.23;5.65;;;;;;;;;;5017447;27;90946;-70
2022/08/30 01:34:47;;;;;;;;;;;;;;;;;;5019741;27;90426;-71
2022/08/30 01:37:16;;;;;;;11.25;5.93;;;;;;;;;;5017519;27;119722;-70
2022/08/30 01:39:44;;;;;;;11.95;5.90;;;;;;;;;;5019453;27;90187;-70
2022/08/30 01:42:11;;;;;;;11.25;6.40;;;;;;;;;;5018002;27;91108;-70
2022/08/30 01:44:38;;;;;;;10.70;6.50;;;;;;;;;;5021715;27;90195;-70
2022/08/30 01:47:04;;;;;;;13.07;6.75;;;;;;;;;;5026076;27;89106;-70
2022/08/30 01:49:31;;;;;;;10.70;6.60;;;;;;;;;;5020208;27;89103;-70
2022/08/30 01:51:57;;;;;;;13.10;6.75;;;;;;;;;;5016205;27;90024;-70
2022/08/30 01:54:26;;;;;;;12.65;7.18;;;;;;;;;;5023009;27;89962;-70
2022/08/30 01:57:02;;;;;;;11.73;6.70;;;;;;;;;;5016413;27;91183;-70
2022/08/30 01:59:29;;;;;;;11.20;6.88;;;;;;;;;;5018439;27;89803;-70
2022/08/30 02:01:55;;;;;;;10.93;7.30;;;;;;;;;;5014904;27;89737;-70
2022/08/30 02:04:21;;;;;;;10.13;6.28;;;;;;;;;;5016629;27;90435;-70
2022/08/30 02:06:48;;;;;;;11.50;7.07;;;;;;;;;;5021691;27;89397;-70
2022/08/30 02:09:14;;;;;;;14.05;6.95;;;;;;;;;;5020385;27;90004;-70
2022/08/30 02:11:41;;;;;;;11.30;6.43;;;;;;;;;;5017174;27;89180;-70
2022/08/30 02:14:07;;;;;;;14.63;7.20;;;;;;;;;;5020531;27;88939;-71
2022/08/30 02:16:33;;;;;;;10.50;7.05;;;;;;;;;;5019825;27;89772;-71
2022/08/30 02:19:00;;;;;;;10.75;7.38;;;;;;;;;;5021372;27;89997;-70
2022/08/30 02:21:26;;;;;;;14.77;7.60;;;;;;;;;;5018122;27;89746;-70
2022/08/30 02:23:53;;;;;;;12.57;7.45;;;;;;;;;;5014935;27;90242;-70
2022/08/30 02:26:19;;;;;;;12.77;7.78;;;;;;;;;;5018093;27;90327;-70
2022/08/30 02:28:46;;;;;;;11.80;7.45;;;;;;;;;;5022225;27;89636;-71
2022/08/30 02:31:15;;;;;;;12.05;7.85;;;;;;;;;;5022165;27;90382;-70
2022/08/30 02:33:44;;;;;;;15.35;8.32;;;;;;;;;;5015248;27;89762;-70
2022/08/30 02:36:11;;;;;;;12.25;7.93;;;;;;;;;;5017170;27;90082;-70
2022/08/30 02:38:37;;;;;;;12.52;8.40;;;;;;;;;;5019081;27;89108;-70
2022/08/30 02:41:04;;;;;;;10.82;7.57;;;;;;;;;;5017664;27;89305;-70
2022/08/30 02:43:30;;;;;;;13.75;8.10;;;;;;;;;;5017762;27;89875;-70
2022/08/30 02:45:57;;;;;;;14.90;7.78;;;;;;;;;;5018116;27;90174;-70
2022/08/30 02:48:23;;;;;;;16.27;7.85;;;;;;;;;;5019084;27;92542;-70
2022/08/30 02:50:50;;;;;;;14.93;7.97;;;;;;;;;;5017289;27;89875;-70
2022/08/30 02:53:19;;;;;;;18.40;8.50;;;;;;;;;;5012209;27;89878;-70
2022/08/30 02:55:46;;;;;;;19.20;9.05;;;;;;;;;;5017700;27;90278;-70
2022/08/30 02:58:13;;;;;;;12.70;8.52;;;;;;;;;;5019263;27;89163;-70
2022/08/30 03:00:40;;;;;;;14.90;8.75;;;;;;;;;;5020895;27;90241;-71
2022/08/30 03:03:07;;;;;;;15.65;8.73;;;;;;;;;;5018360;27;89352;-71
2022/08/30 03:05:34;;;;;;;16.23;9.18;;;;;;;;;;5019082;27;89110;-70
2022/08/30 03:08:05;;;;;;;15.32;9.32;;;;;;;;;;5017505;27;89849;-70
2022/08/30 03:10:31;;;;;;;19.50;9.15;;;;;;;;;;5019674;27;90546;-70
2022/08/30 03:12:57;;;;;;;15.65;9.57;;;;;;;;;;5016778;27;90049;-70
2022/08/30 03:15:24;;;;;;;17.83;9.18;;;;;;;;;;5018276;27;89939;-70
2022/08/30 03:17:51;;;;;;;15.13;9.38;;;;;;;;;;5019218;27;90533;-70
2022/08/30 03:20:18;;;;;;;18.55;10.73;;;;;;;;;;5016431;27;89428;-70
2022/08/30 03:22:45;;;;;;;14.27;9.10;;;;;;;;;;5016225;27;89838;-70
2022/08/30 03:25:12;;;;;;;15.88;9.85;;;;;;;;;;5017693;27;91230;-70
2022/08/30 03:27:38;;;;;;;15.25;9.57;;;;;;;;;;5022014;27;89812;-70
2022/08/30 03:30:05;;;;;;;15.77;9.80;;;;;;;;;;5014683;27;90728;-70
2022/08/30 03:32:31;;;;;;;14.77;10.10;;;;;;;;;;5014845;27;89265;-70
2022/08/30 03:34:58;;;;;;;14.02;10.27;;;;;;;;;;5023646;27;91576;-70
2022/08/30 03:37:25;;;;;;;15.02;10.45;;;;;;;;;;5016493;27;91683;-70
2022/08/30 03:39:55;;;;;;;15.40;10.50;;;;;;;;;;5022296;27;90835;-70
2022/08/30 03:42:21;;;;;;;16.85;10.70;;;;;;;;;;5015101;27;91290;-70
2022/08/30 03:44:49;;;;;;;16.98;10.68;;;;;;;;;;5015683;27;91411;-71
2022/08/30 03:47:16;;;;;;;19.60;10.75;;;;;;;;;;5016848;27;90748;-70
2022/08/30 03:49:42;;;;;;;20.27;11.90;;;;;;;;;;5015585;27;90197;-70
2022/08/30 03:52:08;;;;;;;15.82;11.00;;;;;;;;;;5015212;27;91206;-71
2022/08/30 03:54:35;;;;;;;16.65;10.88;;;;;;;;;;5017379;27;90349;-70
2022/08/30 03:57:03;;;;;;;15.13;10.35;;;;;;;;;;5018110;27;90383;-70
2022/08/30 03:59:29;;;;;;;17.77;12.02;;;;;;;;;;5012576;27;90717;-70
2022/08/30 04:01:55;;;;;;;15.30;11.18;;;;;;;;;;5015513;27;90113;-70
2022/08/30 04:04:22;;;;;;;19.00;11.40;;;;;;;;;;5019816;27;91564;-70
2022/08/30 04:06:48;;;;;;;18.58;10.90;;;;;;;;;;5022204;27;90684;-70
2022/08/30 04:09:14;;;;;;;15.20;10.60;;;;;;;;;;5019869;27;90653;-70
2022/08/30 04:11:41;;;;;;;17.20;11.30;;;;;;;;;;5020112;27;92138;-70
2022/08/30 04:14:07;;;;;;;15.50;11.15;;;;;;;;;;5016962;27;91519;-70
2022/08/30 19:05:02;;;;;;;3.33;1.70;;;;;;;;;;5024405;28;87155;-71
2022/08/30 19:07:29;;;;;;;2.88;1.45;;;;;;;;;;5006272;28;87724;-71
2022/08/30 19:10:03;;;;;;;4.97;1.73;;;;;;;;;;5000231;28;88192;-71
2022/08/30 19:12:29;;;;;;;9.25;1.80;;;;;;;;;;5018965;28;88289;-71
2022/08/30 19:14:58;;;;;;;4.22;1.58;;;;;;;;;;5018743;28;89809;-72
2022/08/30 19:17:25;;;;;;;8.48;1.80;;;;;;;;;;5007735;28;88136;-72
2022/08/30 19:19:51;;;;;;;4.68;1.67;;;;;;;;;;5004067;28;88277;-71
2022/08/30 19:22:19;;;;;;;8.98;2.85;;;;;;;;;;5002647;28;89681;-71
2022/08/30 19:24:46;;;;;;;11.98;1.70;;;;;;;;;;5017686;28;88418;-71
2022/08/30 19:27:12;;;;;;;6.43;1.90;;;;;;;;;;5013535;28;89429;-71
2022/08/30 19:29:38;;;;;;;12.07;2.00;;;;;;;;;;5004521;28;87873;-71
2022/08/30 19:32:05;;;;;;;4.88;1.60;;;;;;;;;;5002169;28;88874;-71
2022/08/30 19:34:35;;;;;;;2.85;1.48;;;;;;;;;;5001837;28;89091;-71
2022/08/30 19:37:01;;;;;;;10.20;1.85;;;;;;;;;;5004911;28;88726;-71
2022/08/30 19:39:28;;;;;;;4.97;1.80;;;;;;;;;;5003370;28;87454;-71
2022/08/30 19:41:54;;;;;;;5.57;1.85;;;;;;;;;;5003212;28;89034;-71
2022/08/30 19:44:21;;;;;;;3.08;1.63;;;;;;;;;;5000359;28;87969;-70
2022/08/30 19:46:49;;;;;;;4.10;1.50;;;;;;;;;;5003436;28;88982;-71
2022/08/30 19:49:16;;;;;;;8.65;2.38;;;;;;;;;;4999189;28;88654;-70
2022/08/30 19:51:44;;;;;;;4.78;1.90;;;;;;;;;;5001842;28;89144;-70
2022/08/30 19:54:12;;;;;;;5.13;1.80;;;;;;;;;;4998884;28;88922;-70
2022/08/30 19:56:39;;;;;;;4.22;1.90;;;;;;;;;;5003589;28;88318;-70
2022/08/30 19:59:05;;;;;;;4.90;1.90;;;;;;;;;;5003031;28;88440;-70
2022/08/30 20:01:32;;;;;;;3.28;1.70;;;;;;;;;;4999751;28;89112;-69
2022/08/30 20:04:00;;;;;;;8.43;2.03;;;;;;;;;;4999101;28;89760;-69
2022/08/30 20:06:27;;;;;;;3.25;1.70;;;;;;;;;;5008942;28;88595;-70
2022/08/30 20:08:53;;;;;;;5.57;2.00;;;;;;;;;;5004344;28;87839;-70
2022/08/30 20:11:22;;;;;;;2.85;1.90;;;;;;;;;;4997890;28;88558;-71
2022/08/30 20:13:49;;;;;;;5.22;1.98;;;;;;;;;;4999046;28;87845;-71
2022/08/30 20:16:15;;;;;;;8.25;2.45;;;;;;;;;;4990541;28;88172;-71
2022/08/30 20:18:43;;;;;;;5.43;2.15;;;;;;;;;;4990275;28;88494;-71
2022/08/30 20:21:11;;;;;;;7.65;1.85;;;;;;;;;;4987721;28;87876;-71
2022/08/30 20:23:40;;;;;;;3.65;1.80;;;;;;;;;;4986311;28;88732;-71
2022/08/30 20:26:08;;;;;;;5.30;2.15;;;;;;;;;;4988151;28;88695;-70
2022/08/30 20:28:34;;;;;;;4.18;2.05;;;;;;;;;;4987078;28;88919;-70
2022/08/30 20:31:02;;;;;;;3.33;2.13;;;;;;;;;;4990782;28;88162;-70
2022/08/30 20:33:28;;;;;;;3.45;1.90;;;;;;;;;;4985353;28;89141;-71
2022/08/30 20:35:58;;;;;;;7.55;2.40;;;;;;;;;;4989076;28;88598;-71
2022/08/30 20:38:25;;;;;;;3.92;2.03;;;;;;;;;;4986253;28;88457;-71
2022/08/30 20:40:52;;;;;;;7.13;2.10;;;;;;;;;;4987108;28;88783;-70
2022/08/30 20:43:20;;;;;;;10.13;2.25;;;;;;;;;;4995623;28;88267;-71
2022/08/30 20:45:46;;;;;;;3.58;1.95;;;;;;;;;;4989475;28;87574;-70
2022/08/30 20:48:13;;;;;;;4.40;2.08;;;;;;;;;;4986105;28;89191;-71
2022/08/30 20:50:40;;;;;;;3.30;2.10;;;;;;;;;;4989193;28;87673;-71
2022/08/30 20:53:07;;;;;;;4.45;2.00;;;;;;;;;;4991336;28;89377;-71
2022/08/30 20:55:33;;;;;;;6.60;2.65;;;;;;;;;;4987924;28;88704;-71
2022/08/30 20:58:00;;;;;;;5.38;2.30;;;;;;;;;;4986136;28;88387;-71
2022/08/30 21:00:26;;;;;;;5.47;2.67;;;;;;;;;;4986415;28;87961;-71
2022/08/30 21:02:52;;;;;;;7.57;2.47;;;;;;;;;;4984994;28;88398;-71
2022/08/30 21:05:19;;;;;;;5.20;2.40;;;;;;;;;;4967623;28;88899;-71
2022/08/30 21:07:45;;;;;;;4.18;2.38;;;;;;;;;;4970080;28;88270;-71
2022/08/30 21:10:12;;;;;;;7.43;2.53;;;;;;;;;;4970395;28;87950;-71
2022/08/30 21:12:39;;;;;;;4.50;2.40;;;;;;;;;;4984288;28;88734;-71
2022/08/30 21:15:05;;;;;;;4.38;2.55;;;;;;;;;;4972681;28;88377;-71
2022/08/30 21:17:52;;;;;;;4.20;2.53;;;;;;;;;;4970233;28;90928;-71
2022/08/30 21:20:18;;;;;;;4.35;2.60;;;;;;;;;;4969342;28;90777;-71
2022/08/30 21:22:46;;;;;;;6.18;2.70;;;;;;;;;;4969201;28;88437;-71
2022/08/30 21:25:12;;;;;;;8.15;2.92;;;;;;;;;;4967704;28;88497;-71
2022/08/30 21:27:38;;;;;;;6.55;2.70;;;;;;;;;;4968992;28;87932;-70
2022/08/30 21:30:05;;;;;;;7.85;2.83;;;;;;;;;;4986874;28;88124;-70
2022/08/30 21:32:31;;;;;;;5.75;2.58;;;;;;;;;;4975237;28;87646;-70
2022/08/30 21:37:42;;;;;;;3.75;2.70;;;;;;;;;;4970589;28;88766;-70
2022/08/30 21:40:13;;;;;;;4.65;2.70;;;;;;;;;;4968588;28;89034;-70
2022/08/30 21:42:40;;;;;;;9.60;2.97;;;;;;;;;;4966242;28;88468;-70
2022/08/30 21:45:07;;;;;;;9.50;2.67;;;;;;;;;;4965776;28;88960;-70
2022/08/30 21:47:34;;;;;;;4.68;2.60;;;;;;;;;;4970601;28;88589;-70
2022/08/30 21:50:00;;;;;;;6.40;2.92;;;;;;;;;;4969221;28;87718;-70
2022/08/30 21:52:26;;;;;;;5.78;2.95;;;;;;;;;;4989520;28;88213;-70
2022/08/30 21:54:53;;;;;;;8.38;3.10;;;;;;;;;;4989057;28;89251;-70
2022/08/30 21:57:19;;;;;;;10.73;3.05;;;;;;;;;;5076424;23;88765;-70
2022/08/30 21:59:45;;;;;;;5.57;3.05;;;;;;;;;;4942756;28;89351;-70
2022/08/30 22:02:12;;;;;;;8.98;3.00;;;;;;;;;;4945959;28;89737;-70
2022/08/30 22:04:39;;;;;;;7.22;2.72;;;;;;;;;;4943537;28;88528;-70
2022/08/30 22:07:07;;;;;;;5.07;2.40;;;;;;;;;;4930577;28;87948;-70
2022/08/30 22:09:34;;;;;;;6.07;2.83;;;;;;;;;;4948897;28;88401;-70
2022/08/30 22:12:00;;;;;;;7.15;2.85;;;;;;;;;;4930382;28;89010;-69
2022/08/30 22:14:26;;;;;;;5.50;2.63;;;;;;;;;;4948652;28;89249;-70
2022/08/30 22:16:53;;;;;;;4.78;2.50;;;;;;;;;;4931475;28;88044;-70
2022/08/30 22:19:19;;;;;;;6.45;2.83;;;;;;;;;;4952733;28;88966;-69
2022/08/30 22:21:49;;;;;;;6.03;2.75;;;;;;;;;;4949705;28;88019;-70
2022/08/30 22:24:15;;;;;;;8.13;3.03;;;;;;;;;;4946733;28;89138;-70
2022/08/30 22:26:43;;;;;;;5.55;2.53;;;;;;;;;;4950680;28;89229;-70
2022/08/30 22:29:09;;;;;;;5.00;2.40;;;;;;;;;;4949085;28;88461;-70
2022/08/30 22:31:36;;;;;;;6.60;2.50;;;;;;;;;;4949963;28;88520;-70
2022/08/30 22:34:08;;;;;;;4.82;2.83;;;;;;;;;;4946271;28;89563;-70
2022/08/30 22:36:36;;;;;;;4.38;2.45;;;;;;;;;;4949913;28;88488;-70
2022/08/30 22:39:03;;;;;;;4.07;2.33;;;;;;;;;;4948733;28;87524;-69
2022/08/30 22:41:30;;;;;;;10.43;2.47;;;;;;;;;;4952271;28;89026;-70
2022/08/30 22:43:57;;;;;;;7.95;2.40;;;;;;;;;;4945601;28;88227;-70
2022/08/30 22:46:23;;;;;;;4.13;2.50;;;;;;;;;;4947203;28;89042;-70
2022/08/30 22:49:01;;;;;;;5.15;2.60;;;;;;;;;;4949346;28;88438;-69
2022/08/30 22:51:27;;;;;;;3.90;2.38;;;;;;;;;;4949448;28;88584;-70
2022/08/30 22:53:54;;;;;;;8.25;2.60;;;;;;;;;;4947630;28;89058;-70
2022/08/30 22:56:23;;;;;;;4.75;2.30;;;;;;;;;;4949469;28;88412;-70
2022/08/30 22:58:50;;;;;;;5.45;2.63;;;;;;;;;;4948209;28;88118;-71
2022/08/30 23:01:17;;;;;;;4.63;2.65;;;;;;;;;;4947561;28;89348;-69
2022/08/30 23:03:44;;;;;;;9.55;2.65;;;;;;;;;;4952884;28;88588;-70
2022/08/30 23:06:11;;;;;;;5.53;2.08;;;;;;;;;;4950329;28;88984;-70
2022/08/30 23:08:37;;;;;;;8.20;2.60;;;;;;;;;;4945798;28;88411;-70
2022/08/30 23:11:03;;;;;;;6.05;2.40;;;;;;;;;;4930889;28;90593;-70
2022/08/30 23:13:30;;;;;;;7.28;2.67;;;;;;;;;;4949162;28;88829;-69
2022/08/30 23:15:56;;;;;;;5.65;2.45;;;;;;;;;;4946624;28;89232;-70
2022/08/30 23:18:22;;;;;;;4.05;2.20;;;;;;;;;;4947035;28;89952;-70
2022/08/30 23:20:49;;;;;;;5.40;2.53;;;;;;;;;;4947462;28;89925;-70
